createdAt,value
2022-08-14T00:01:55.482Z,100754.14
2022-08-14T00:04:35.409Z,100748.05
2022-08-14T00:07:11.615Z,100747.27
2022-08-14T00:10:01.988Z,100744.66
2022-08-14T00:12:33.714Z,100747.84
2022-08-14T00:15:29.631Z,100746.71
2022-08-14T00:17:57.853Z,100746.95
2022-08-14T00:20:41.322Z,100746.63
2022-08-14T00:23:16.895Z,100751.40
2022-08-14T00:25:53.837Z,100754.19
2022-08-14T00:28:29.129Z,100749.84
2022-08-14T00:31:00.124Z,100744.79
2022-08-14T00:33:50.972Z,100744.03
2022-08-14T00:36:36.076Z,100746.16
2022-08-14T00:39:06.521Z,100746.06
2022-08-14T00:41:33.987Z,100743.68
2022-08-14T00:44:01.482Z,100738.76
2022-08-14T00:46:33.286Z,100729.54
2022-08-14T00:49:00.830Z,100723.33
2022-08-14T00:51:37.667Z,100713.11
2022-08-14T00:54:11.152Z,100710.00
2022-08-14T00:56:49.751Z,100710.31
2022-08-14T00:59:16.773Z,100717.70
2022-08-14T01:01:45.073Z,100721.16
2022-08-14T01:04:51.313Z,100717.56
2022-08-14T01:07:00.836Z,100717.41
2022-08-14T01:09:36.590Z,100711.98
2022-08-14T01:12:04.826Z,100710.80
2022-08-14T01:14:31.849Z,100708.09
2022-08-14T01:16:59.918Z,100701.05
2022-08-14T01:19:46.755Z,100698.63
2022-08-14T01:22:18.658Z,100696.00
2022-08-14T01:24:47.113Z,100690.98
2022-08-14T01:27:19.582Z,100696.36
2022-08-14T01:30:00.964Z,100695.68
2022-08-14T01:32:37.796Z,100693.10
2022-08-14T01:35:17.851Z,100692.69
2022-08-14T01:37:57.997Z,100687.52
2022-08-14T01:40:36.324Z,100686.84
2022-08-14T01:43:15.790Z,100678.33
2022-08-14T01:45:57.704Z,100678.68
2022-08-14T01:48:37.133Z,100677.34
2022-08-14T01:51:19.475Z,100677.04
2022-08-14T01:53:54.705Z,100676.05
2022-08-14T01:56:36.891Z,100678.27
2022-08-14T01:59:09.573Z,100679.86
2022-08-14T02:01:41.859Z,100676.20
2022-08-14T02:04:40.762Z,100671.73
2022-08-14T02:06:57.021Z,100670.88
2022-08-14T02:09:23.859Z,100671.41
2022-08-14T02:11:54.519Z,100668.52
2022-08-14T02:14:31.274Z,100666.08
2022-08-14T02:16:59.985Z,100668.59
2022-08-14T02:19:31.774Z,100669.14
2022-08-14T02:22:03.349Z,100668.40
2022-08-14T02:24:39.671Z,100670.66
2022-08-14T02:28:25.237Z,100666.36
2022-08-14T02:30:01.310Z,100662.80
2022-08-14T02:32:36.818Z,100659.61
2022-08-14T02:35:13.695Z,100663.59
2022-08-14T02:37:48.254Z,100658.34
2022-08-14T02:40:18.285Z,100654.65
2022-08-14T02:42:55.287Z,100653.46
2022-08-14T02:45:38.722Z,100652.31
2022-08-14T02:49:04.033Z,100650.55
2022-08-14T02:51:01.412Z,100652.16
2022-08-14T02:53:31.150Z,100651.67
2022-08-14T02:56:02.487Z,100646.53
2022-08-14T02:58:32.815Z,100642.66
2022-08-14T03:01:01.454Z,100639.37
2022-08-14T03:03:31.622Z,100634.59
2022-08-14T03:05:59.990Z,100632.41
2022-08-14T03:08:31.963Z,100627.39
2022-08-14T03:11:07.772Z,100627.52
2022-08-14T03:13:40.977Z,100633.83
2022-08-14T03:16:26.529Z,100629.92
2022-08-14T03:18:58.292Z,100626.65
2022-08-14T03:21:27.261Z,100625.90
2022-08-14T03:24:21.307Z,100625.61
2022-08-14T03:26:50.011Z,100623.48
2022-08-14T03:29:26.169Z,100623.81
2022-08-14T03:31:53.987Z,100618.89
2022-08-14T03:34:24.305Z,100615.83
2022-08-14T03:37:37.938Z,100614.13
2022-08-14T03:39:53.464Z,100617.16
2022-08-14T03:42:22.348Z,100617.60
2022-08-14T03:45:20.281Z,100612.34
2022-08-14T03:47:46.365Z,100606.20
2022-08-14T03:50:27.932Z,100603.23
2022-08-14T03:53:01.500Z,100594.87
2022-08-14T03:55:30.334Z,100598.06
2022-08-14T03:57:58.453Z,100599.64
2022-08-14T04:00:43.371Z,100602.62
2022-08-14T04:03:16.503Z,100598.08
2022-08-14T04:05:48.980Z,100599.55
2022-08-14T04:08:30.088Z,100598.72
2022-08-14T04:11:01.558Z,100594.57
2022-08-14T04:13:31.788Z,100590.81
2022-08-14T04:16:31.614Z,100588.88
2022-08-14T04:18:59.786Z,100588.99
2022-08-14T04:21:29.420Z,100587.85
2022-08-14T04:23:59.287Z,100589.47
2022-08-14T04:26:42.008Z,100582.86
2022-08-14T04:29:15.413Z,100578.90
2022-08-14T04:33:01.371Z,100580.60
2022-08-14T04:34:30.364Z,100578.64
2022-08-14T04:37:21.928Z,100577.39
2022-08-14T04:40:11.211Z,100574.64
2022-08-14T04:42:56.688Z,100569.34
2022-08-14T04:45:25.438Z,100563.67
2022-08-14T04:48:39.140Z,100560.38
2022-08-14T04:51:03.400Z,100559.04
2022-08-14T04:53:35.273Z,100562.28
2022-08-14T04:56:10.709Z,100558.49
2022-08-14T04:59:02.058Z,100557.50
2022-08-14T05:01:29.188Z,100559.20
2022-08-14T05:04:07.175Z,100555.90
2022-08-14T05:06:38.272Z,100548.77
2022-08-14T05:09:07.359Z,100551.42
2022-08-14T05:11:40.945Z,100550.05
2022-08-14T05:14:33.933Z,100550.59
2022-08-14T05:16:59.263Z,100554.58
2022-08-14T05:19:29.865Z,100556.39
2022-08-14T05:22:16.970Z,100553.23
2022-08-14T05:24:51.170Z,100548.38
2022-08-14T05:27:23.301Z,100547.77
2022-08-14T05:29:52.956Z,100549.04
2022-08-14T05:32:19.658Z,100550.88
2022-08-14T05:34:47.363Z,100541.41
2022-08-14T05:37:15.400Z,100539.77
2022-08-14T05:39:43.758Z,100530.74
2022-08-14T05:42:22.115Z,100526.28
2022-08-14T05:44:54.777Z,100524.73
2022-08-14T05:47:23.242Z,100526.50
2022-08-14T05:49:50.245Z,100527.69
2022-08-14T05:52:38.510Z,100521.34
2022-08-14T05:55:08.833Z,100518.06
2022-08-14T05:57:46.137Z,100513.30
2022-08-14T06:00:29.053Z,100513.22
2022-08-14T06:03:00.147Z,100514.36
2022-08-14T06:05:28.682Z,100516.45
2022-08-14T06:07:57.904Z,100512.42
2022-08-14T06:10:25.276Z,100512.89
2022-08-14T06:12:56.965Z,100518.55
2022-08-14T06:15:33.608Z,100516.05
2022-08-14T06:18:01.740Z,100513.65
2022-08-14T06:20:30.475Z,100509.60
2022-08-14T06:22:57.824Z,100509.16
2022-08-14T06:25:27.769Z,100499.29
2022-08-14T06:27:55.179Z,100500.26
2022-08-14T06:30:41.809Z,100500.39
2022-08-14T06:33:13.081Z,100493.33
2022-08-14T06:35:43.081Z,100489.70
2022-08-14T06:38:17.330Z,100494.64
2022-08-14T06:40:45.951Z,100490.85
2022-08-14T06:43:15.471Z,100489.43
2022-08-14T06:45:50.231Z,100488.48
2022-08-14T06:48:23.840Z,100489.00
2022-08-14T06:50:52.715Z,100485.90
2022-08-14T06:53:20.366Z,100486.77
2022-08-14T06:55:58.526Z,100488.52
2022-08-14T06:58:30.768Z,100486.85
2022-08-14T07:01:23.019Z,100485.83
2022-08-14T07:04:22.928Z,100492.77
2022-08-14T07:06:51.506Z,100491.89
2022-08-14T07:09:23.032Z,100485.52
2022-08-14T07:11:50.363Z,100478.77
2022-08-14T07:14:17.568Z,100484.67
2022-08-14T07:16:44.486Z,100484.36
2022-08-14T07:19:11.588Z,100485.23
2022-08-14T07:21:39.526Z,100481.08
2022-08-14T07:24:09.779Z,100477.46
2022-08-14T07:26:49.312Z,100478.69
2022-08-14T07:29:17.441Z,100479.89
2022-08-14T07:31:45.026Z,100482.76
2022-08-14T07:34:13.735Z,100480.07
2022-08-14T07:37:01.576Z,100483.30
2022-08-14T07:39:28.938Z,100485.38
2022-08-14T07:41:55.945Z,100489.05
2022-08-14T07:44:32.226Z,100489.21
2022-08-14T07:47:02.424Z,100487.52
2022-08-14T07:49:32.485Z,100484.61
2022-08-14T07:52:00.006Z,100486.66
2022-08-14T07:54:30.105Z,100484.61
2022-08-14T07:57:00.164Z,100486.02
2022-08-14T07:59:42.464Z,100489.00
2022-08-14T08:02:19.750Z,100491.67
2022-08-14T08:04:50.730Z,100488.91
2022-08-14T08:07:21.774Z,100491.00
2022-08-14T08:09:53.483Z,100489.23
2022-08-14T08:12:24.000Z,100487.89
2022-08-14T08:14:56.291Z,100486.73
2022-08-14T08:17:34.385Z,100489.09
2022-08-14T08:20:02.353Z,100479.50
2022-08-14T08:22:32.443Z,100476.77
2022-08-14T08:25:00.740Z,100476.11
2022-08-14T08:27:27.923Z,100484.44
2022-08-14T08:30:10.245Z,100486.11
2022-08-14T08:32:42.580Z,100486.30
2022-08-14T08:35:25.696Z,100482.04
2022-08-14T08:39:15.386Z,100477.05
2022-08-14T08:41:09.697Z,100474.49
2022-08-14T08:43:39.283Z,100471.16
2022-08-14T08:46:21.774Z,100475.73
2022-08-14T08:51:22.809Z,100462.96
2022-08-14T08:54:00.371Z,100460.13
2022-08-14T08:56:39.858Z,100461.88
2022-08-14T08:59:30.905Z,100453.11
2022-08-14T09:02:04.132Z,100447.63
2022-08-14T09:04:38.093Z,100443.52
2022-08-14T09:07:14.572Z,100443.31
2022-08-14T09:09:59.357Z,100444.55
2022-08-14T09:12:32.451Z,100445.12
2022-08-14T09:15:12.667Z,100446.40
2022-08-14T09:17:41.598Z,100445.34
2022-08-14T09:20:11.596Z,100442.83
2022-08-14T09:22:47.540Z,100430.50
2022-08-14T09:25:16.609Z,100426.62
2022-08-14T09:27:43.658Z,100426.27
2022-08-14T09:30:13.296Z,100429.21
2022-08-14T09:33:01.312Z,100424.59
2022-08-14T09:35:48.627Z,100418.02
2022-08-14T09:38:40.657Z,100414.56
2022-08-14T09:42:21.620Z,100415.05
2022-08-14T09:44:33.975Z,100412.80
2022-08-14T09:47:01.134Z,100414.02
2022-08-14T09:49:40.596Z,100410.00
2022-08-14T09:52:23.763Z,100404.57
2022-08-14T09:55:02.586Z,100403.34
2022-08-14T09:57:39.837Z,100394.52
2022-08-14T10:00:30.148Z,100394.04
2022-08-14T10:03:05.246Z,100388.02
2022-08-14T10:05:39.076Z,100384.95
2022-08-14T10:08:17.734Z,100384.98
2022-08-14T10:11:02.575Z,100380.94
2022-08-14T10:13:37.131Z,100367.39
2022-08-14T10:16:21.813Z,100370.98
2022-08-14T10:19:14.237Z,100369.41
2022-08-14T10:23:10.955Z,100364.88
2022-08-14T10:24:46.310Z,100365.27
2022-08-14T10:27:23.420Z,100362.60
2022-08-14T10:29:54.518Z,100354.18
2022-08-14T10:32:28.540Z,100346.87
2022-08-14T10:35:14.328Z,100352.73
2022-08-14T10:37:52.760Z,100351.73
2022-08-14T10:40:44.080Z,100344.52
2022-08-14T10:43:26.891Z,100337.11
2022-08-14T10:46:03.961Z,100337.70
2022-08-14T10:49:02.702Z,100330.96
2022-08-14T10:51:35.324Z,100328.81
2022-08-14T10:54:35.046Z,100324.04
2022-08-14T10:56:57.453Z,100322.67
2022-08-14T10:59:31.272Z,100318.85
2022-08-14T11:02:03.072Z,100311.52
2022-08-14T11:04:31.122Z,100316.26
2022-08-14T11:06:58.782Z,100309.86
2022-08-14T11:09:26.036Z,100306.84
2022-08-14T11:12:33.262Z,100305.41
2022-08-14T11:14:59.005Z,100302.33
2022-08-14T11:17:31.685Z,100295.36
2022-08-14T11:20:01.392Z,100295.40
2022-08-14T11:23:03.185Z,100295.41
2022-08-14T11:25:20.323Z,100294.60
2022-08-14T11:27:49.455Z,100292.45
2022-08-14T11:30:52.320Z,100291.63
2022-08-14T11:33:07.592Z,100285.02
2022-08-14T11:35:47.285Z,100283.69
2022-08-14T11:38:17.038Z,100283.52
2022-08-14T11:40:46.987Z,100281.02
2022-08-14T11:43:15.316Z,100284.27
2022-08-14T11:45:48.000Z,100280.62
2022-08-14T11:49:01.712Z,100276.16
2022-08-14T11:51:14.503Z,100273.35
2022-08-14T11:53:44.677Z,100276.33
2022-08-14T11:56:12.846Z,100268.80
2022-08-14T11:58:40.410Z,100259.88
2022-08-14T12:01:09.850Z,100260.27
2022-08-14T12:03:46.750Z,100263.17
2022-08-14T12:06:29.267Z,100257.60
2022-08-14T12:09:08.710Z,100256.15
2022-08-14T12:11:47.562Z,100253.42
2022-08-14T12:14:34.911Z,100252.23
2022-08-14T12:17:09.416Z,100249.25
2022-08-14T12:19:54.013Z,100244.92
2022-08-14T12:22:35.970Z,100247.95
2022-08-14T12:25:11.136Z,100235.48
2022-08-14T12:27:52.883Z,100228.44
2022-08-14T12:30:40.047Z,100221.65
2022-08-14T12:33:30.440Z,100214.66
2022-08-14T12:36:00.605Z,100215.39
2022-08-14T12:38:36.488Z,100212.64
2022-08-14T12:41:09.374Z,100213.04
2022-08-14T12:43:47.776Z,100208.97
2022-08-14T12:46:40.613Z,100205.52
2022-08-14T12:49:16.028Z,100195.30
2022-08-14T12:51:44.779Z,100203.55
2022-08-14T12:54:28.572Z,100198.71
2022-08-14T12:57:19.305Z,100193.64
2022-08-14T12:59:47.602Z,100187.74
2022-08-14T13:02:25.356Z,100183.44
2022-08-14T13:04:57.994Z,100175.80
2022-08-14T13:07:32.879Z,100167.66
2022-08-14T13:10:00.798Z,100162.52
2022-08-14T13:13:11.918Z,100161.89
2022-08-14T13:15:38.141Z,100166.65
2022-08-14T13:18:12.345Z,100161.13
2022-08-14T13:20:49.381Z,100151.50
2022-08-14T13:23:19.572Z,100148.00
2022-08-14T13:25:58.113Z,100148.66
2022-08-14T13:28:30.101Z,100137.98
2022-08-14T13:31:13.244Z,100128.55
2022-08-14T13:33:41.165Z,100134.20
2022-08-14T13:36:24.325Z,100122.39
2022-08-14T13:39:00.454Z,100127.80
2022-08-14T13:41:31.927Z,100122.48
2022-08-14T13:44:04.132Z,100113.77
2022-08-14T13:46:30.832Z,100104.40
2022-08-14T13:48:59.686Z,100104.26
2022-08-14T13:51:29.908Z,100101.54
2022-08-14T13:54:10.238Z,100096.22
2022-08-14T13:56:39.969Z,100095.91
2022-08-14T13:59:07.297Z,100096.73
2022-08-14T14:01:43.942Z,100088.29
2022-08-14T14:04:18.839Z,100080.77
2022-08-14T14:06:50.895Z,100072.76
2022-08-14T14:09:32.455Z,100072.36
2022-08-14T14:12:07.941Z,100072.13
2022-08-14T14:14:55.439Z,100063.70
2022-08-14T14:17:25.134Z,100066.85
2022-08-14T14:19:56.280Z,100069.09
2022-08-14T14:22:35.938Z,100061.75
2022-08-14T14:25:14.308Z,100060.42
2022-08-14T14:27:53.645Z,100060.70
2022-08-14T14:30:46.611Z,100055.30
2022-08-14T14:33:42.227Z,100053.59
2022-08-14T14:36:01.670Z,100047.27
2022-08-14T14:38:32.746Z,100051.90
2022-08-14T14:41:01.570Z,100048.34
2022-08-14T14:43:28.958Z,100046.02
2022-08-14T14:45:56.358Z,100041.39
2022-08-14T14:48:28.338Z,100043.38
2022-08-14T14:50:58.361Z,100042.27
2022-08-14T14:53:26.110Z,100044.48
2022-08-14T14:56:47.583Z,100042.19
2022-08-14T14:58:43.558Z,100028.34
2022-08-14T15:01:15.401Z,100027.64
2022-08-14T15:03:44.013Z,100034.27
2022-08-14T15:06:10.731Z,100037.14
2022-08-14T15:08:56.875Z,100035.25
2022-08-14T15:11:30.377Z,100033.90
2022-08-14T15:13:59.232Z,100024.02
2022-08-14T15:16:27.368Z,100016.17
2022-08-14T15:18:54.273Z,100020.07
2022-08-14T15:21:21.507Z,100016.83
2022-08-14T15:23:50.508Z,100013.48
2022-08-14T15:26:24.146Z,100006.92
2022-08-14T15:29:05.684Z,100006.78
2022-08-14T15:31:36.529Z,100008.58
2022-08-14T15:34:40.960Z,100005.05
2022-08-14T15:37:01.608Z,100000.80
2022-08-14T15:39:34.152Z,99993.98
2022-08-14T15:42:14.722Z,99983.33
2022-08-14T15:44:57.039Z,99975.14
2022-08-14T15:47:29.063Z,99977.58
2022-08-14T15:49:59.293Z,99977.60
2022-08-14T15:52:32.900Z,99971.70
2022-08-14T15:55:06.866Z,99970.96
2022-08-14T15:57:34.830Z,99970.32
2022-08-14T16:00:40.575Z,99966.23
2022-08-14T16:03:11.572Z,99966.14
2022-08-14T16:05:38.979Z,99967.79
2022-08-14T16:08:27.451Z,99964.27
2022-08-14T16:10:55.214Z,99967.55
2022-08-14T16:13:41.116Z,99967.17
2022-08-14T16:16:34.434Z,99967.75
2022-08-14T16:19:19.450Z,99966.47
2022-08-14T16:22:01.225Z,99965.00
2022-08-14T16:25:00.456Z,99963.00
2022-08-14T16:27:39.272Z,99959.80
2022-08-14T16:30:20.760Z,99959.35
2022-08-14T16:32:55.298Z,99952.38
2022-08-14T16:35:26.491Z,99956.29
2022-08-14T16:38:15.109Z,99948.36
2022-08-14T16:40:46.427Z,99952.86
2022-08-14T16:43:14.691Z,99945.69
2022-08-14T16:45:43.501Z,99939.77
2022-08-14T16:48:57.241Z,99939.08
2022-08-14T16:50:58.909Z,99935.45
2022-08-14T16:53:27.521Z,99928.89
2022-08-14T16:56:23.785Z,99929.14
2022-08-14T16:59:05.234Z,99927.27
2022-08-14T17:01:32.325Z,99924.72
2022-08-14T17:04:08.605Z,99919.25
2022-08-14T17:06:52.733Z,99911.97
2022-08-14T17:09:50.420Z,99912.70
2022-08-14T17:12:33.622Z,99909.47
2022-08-14T17:15:10.094Z,99910.77
2022-08-14T17:17:40.616Z,99905.69
2022-08-14T17:20:39.405Z,99904.80
2022-08-14T17:23:15.110Z,99900.33
2022-08-14T17:25:51.093Z,99897.05
2022-08-14T17:28:51.864Z,99897.18
2022-08-14T17:31:12.411Z,99895.10
2022-08-14T17:33:40.538Z,99894.34
2022-08-14T17:36:21.434Z,99892.50
2022-08-14T17:39:15.426Z,99890.79
2022-08-14T17:42:02.789Z,99887.70
2022-08-14T17:44:45.455Z,99893.39
2022-08-14T17:47:18.281Z,99892.79
2022-08-14T17:49:52.195Z,99889.20
2022-08-14T17:52:34.185Z,99890.08
2022-08-14T17:55:02.642Z,99890.04
2022-08-14T17:57:35.227Z,99889.54
2022-08-14T18:00:11.163Z,99886.66
2022-08-14T18:02:39.262Z,99887.79
2022-08-14T18:05:08.934Z,99889.20
2022-08-14T18:08:31.494Z,99890.36
2022-08-14T18:10:51.681Z,99895.54
2022-08-14T18:13:11.460Z,99894.98
2022-08-14T18:15:41.234Z,99895.51
2022-08-14T18:18:11.773Z,99898.74
2022-08-14T18:21:40.013Z,99893.45
2022-08-14T18:23:28.486Z,99893.43
2022-08-14T18:25:57.628Z,99894.59
2022-08-14T18:28:51.582Z,99891.63
2022-08-14T18:31:21.696Z,99895.64
2022-08-14T18:34:32.424Z,99895.54
2022-08-14T18:37:09.587Z,99893.54
2022-08-14T18:40:03.314Z,99900.77
2022-08-14T18:42:34.790Z,99900.41
2022-08-14T18:45:12.245Z,99901.48
2022-08-14T18:48:14.381Z,99899.73
2022-08-14T18:50:30.882Z,99904.47
2022-08-14T18:53:10.640Z,99906.17
2022-08-14T18:55:53.086Z,99908.66
2022-08-14T18:58:31.609Z,99911.23
2022-08-14T19:01:02.138Z,99913.58
2022-08-14T19:03:33.991Z,99915.61
2022-08-14T19:06:04.462Z,99917.23
2022-08-14T19:08:38.319Z,99914.87
2022-08-14T19:11:50.440Z,99911.46
2022-08-14T19:14:45.067Z,99913.02
2022-08-14T19:18:14.212Z,99918.39
2022-08-14T19:20:52.734Z,99918.42
2022-08-14T19:23:42.036Z,99917.02
2022-08-14T19:26:37.006Z,99916.27
2022-08-14T19:29:23.601Z,99917.44
2022-08-14T19:31:55.387Z,99920.45
2022-08-14T19:34:52.169Z,99914.01
2022-08-14T19:37:55.361Z,99912.21
2022-08-14T19:40:34.218Z,99910.02
2022-08-14T19:43:06.531Z,99912.23
2022-08-14T19:45:34.146Z,99910.53
2022-08-14T19:48:01.712Z,99909.80
2022-08-14T19:50:40.423Z,99909.16
2022-08-14T19:53:12.056Z,99912.36
2022-08-14T19:55:56.414Z,99913.02
2022-08-14T19:58:26.094Z,99912.50
2022-08-14T20:00:59.258Z,99912.52
2022-08-14T20:03:26.047Z,99914.96
2022-08-14T20:06:12.877Z,99913.30
2022-08-14T20:11:07.028Z,99914.34
2022-08-14T20:11:58.420Z,99912.64
2022-08-14T20:14:29.752Z,99910.51
2022-08-14T20:17:06.264Z,99909.80
2022-08-14T20:19:37.807Z,99911.27
2022-08-14T20:22:37.486Z,99909.52
2022-08-14T20:25:11.233Z,99908.33
2022-08-14T20:27:40.882Z,99911.63
2022-08-14T20:33:10.642Z,99908.79
2022-08-14T20:35:47.597Z,99910.21
2022-08-14T20:38:29.308Z,99907.38
2022-08-14T20:41:01.252Z,99909.25
2022-08-14T20:43:52.728Z,99905.89
2022-08-14T20:46:29.448Z,99908.34
2022-08-14T20:49:08.458Z,99907.84
2022-08-14T20:51:38.820Z,99907.75
2022-08-14T20:54:20.632Z,99906.20
2022-08-14T20:57:17.722Z,99903.44
2022-08-14T20:59:50.083Z,99905.13
2022-08-14T21:02:28.650Z,99903.77
2022-08-14T21:05:02.598Z,99904.02
2022-08-14T21:07:36.161Z,99899.85
2022-08-14T21:10:44.004Z,99902.06
2022-08-14T21:13:27.680Z,99896.31
2022-08-14T21:16:25.703Z,99898.65
2022-08-14T21:19:01.983Z,99895.09
2022-08-14T21:21:40.834Z,99894.61
2022-08-14T21:24:09.520Z,99900.88
2022-08-14T21:27:12.123Z,99901.79
2022-08-14T21:29:41.008Z,99895.19
2022-08-14T21:32:33.580Z,99897.05
2022-08-14T21:35:07.967Z,99898.05
2022-08-14T21:37:36.484Z,99896.61
2022-08-14T21:40:40.806Z,99894.08
2022-08-14T21:42:51.905Z,99890.90
2022-08-14T21:45:19.785Z,99888.15
2022-08-14T21:47:47.129Z,99888.39
2022-08-14T21:50:56.628Z,99886.71
2022-08-14T21:53:03.598Z,99883.81
2022-08-14T21:55:32.180Z,99879.47
2022-08-14T21:58:46.178Z,99879.25
2022-08-14T22:00:49.145Z,99877.33
2022-08-14T22:03:24.140Z,99874.75
2022-08-14T22:05:53.567Z,99875.70
2022-08-14T22:08:22.388Z,99877.75
2022-08-14T22:10:54.840Z,99872.20
2022-08-14T22:13:26.374Z,99871.85
2022-08-14T22:15:59.517Z,99870.00
2022-08-14T22:18:27.255Z,99877.69
2022-08-14T22:20:57.219Z,99871.77
2022-08-14T22:23:25.818Z,99876.42
2022-08-14T22:25:53.539Z,99870.98
2022-08-14T22:28:25.399Z,99874.82
2022-08-14T22:30:54.647Z,99870.47
2022-08-14T22:33:26.638Z,99870.46
2022-08-14T22:35:58.855Z,99868.45
2022-08-14T22:38:35.330Z,99867.58
2022-08-14T22:41:27.648Z,99871.05
2022-08-14T22:44:10.956Z,99868.89
2022-08-14T22:46:38.489Z,99867.12
2022-08-14T22:49:15.379Z,99866.54
2022-08-14T22:51:57.797Z,99859.45
2022-08-14T22:54:53.144Z,99855.07
2022-08-14T22:57:13.893Z,99856.53
2022-08-14T22:59:41.586Z,99853.60
2022-08-14T23:02:14.035Z,99851.69
2022-08-14T23:04:54.488Z,99849.44
2022-08-14T23:07:23.889Z,99850.35
2022-08-14T23:10:32.259Z,99847.36
2022-08-14T23:12:54.767Z,99844.09
2022-08-14T23:15:23.770Z,99841.27
2022-08-14T23:17:51.279Z,99836.05
2022-08-14T23:20:21.615Z,99835.77
2022-08-14T23:22:51.823Z,99830.48
2022-08-14T23:25:58.402Z,99830.29
2022-08-14T23:28:34.348Z,99835.40
2022-08-14T23:30:56.229Z,99831.88
2022-08-14T23:33:23.553Z,99833.73
2022-08-14T23:35:58.778Z,99836.04
2022-08-14T23:38:30.452Z,99834.09
2022-08-14T23:41:03.166Z,99832.15
2022-08-14T23:43:31.671Z,99829.19
2022-08-14T23:45:59.067Z,99833.29
2022-08-14T23:48:28.519Z,99830.00
2022-08-14T23:50:56.267Z,99821.63
2022-08-14T23:53:47.479Z,99820.23
2022-08-14T23:56:31.665Z,99820.47
2022-08-14T23:59:00.888Z,99820.50
